sensor_id;sensor_type;location;lat;lon;timestamp;pressure;altitude;pressure_sealevel;temperature;humidity
76819;BME280;65772;51.096;17.006;2024-02-23T00:00:20;97907.36;;;12.42;65.31
76819;BME280;65772;51.096;17.006;2024-02-23T00:02:50;97906.66;;;12.42;65.33
76819;BME280;65772;51.096;17.006;2024-02-23T00:05:23;97902.56;;;12.42;65.21
76819;BME280;65772;51.096;17.006;2024-02-23T00:07:54;97906.83;;;12.44;65.12
76819;BME280;65772;51.096;17.006;2024-02-23T00:10:25;97906.13;;;12.45;65.11
76819;BME280;65772;51.096;17.006;2024-02-23T00:12:56;97906.27;;;12.46;65.02
76819;BME280;65772;51.096;17.006;2024-02-23T00:15:26;97911.71;;;12.49;65.03
76819;BME280;65772;51.096;17.006;2024-02-23T00:17:57;97902.65;;;12.49;64.86
76819;BME280;65772;51.096;17.006;2024-02-23T00:20:28;97902.81;;;12.49;64.44
76819;BME280;65772;51.096;17.006;2024-02-23T00:22:59;97906.85;;;12.52;64.44
76819;BME280;65772;51.096;17.006;2024-02-23T00:25:29;97905.96;;;12.54;64.15
76819;BME280;65772;51.096;17.006;2024-02-23T00:28:00;97908.16;;;12.56;64.44
76819;BME280;65772;51.096;17.006;2024-02-23T00:30:31;97908.27;;;12.59;64.25
76819;BME280;65772;51.096;17.006;2024-02-23T00:33:01;97910.40;;;12.64;63.97
76819;BME280;65772;51.096;17.006;2024-02-23T00:35:32;97910.86;;;12.67;64.21
76819;BME280;65772;51.096;17.006;2024-02-23T00:38:03;97919.03;;;12.70;64.05
76819;BME280;65772;51.096;17.006;2024-02-23T00:40:34;97922.56;;;12.72;63.99
76819;BME280;65772;51.096;17.006;2024-02-23T00:43:05;97929.91;;;12.73;63.98
76819;BME280;65772;51.096;17.006;2024-02-23T00:45:35;97933.13;;;12.75;64.08
76819;BME280;65772;51.096;17.006;2024-02-23T00:48:07;97934.79;;;12.78;63.99
76819;BME280;65772;51.096;17.006;2024-02-23T00:50:38;97934.24;;;12.80;64.12
76819;BME280;65772;51.096;17.006;2024-02-23T00:53:09;97925.02;;;12.79;64.04
76819;BME280;65772;51.096;17.006;2024-02-23T00:55:39;97915.81;;;12.77;64.20
76819;BME280;65772;51.096;17.006;2024-02-23T00:58:10;97915.15;;;12.76;64.21
76819;BME280;65772;51.096;17.006;2024-02-23T01:00:41;97915.34;;;12.74;64.10
76819;BME280;65772;51.096;17.006;2024-02-23T01:03:12;97911.61;;;12.72;64.10
76819;BME280;65772;51.096;17.006;2024-02-23T01:05:42;97911.06;;;12.75;64.30
76819;BME280;65772;51.096;17.006;2024-02-23T01:08:13;97911.19;;;12.77;64.03
76819;BME280;65772;51.096;17.006;2024-02-23T01:10:45;97903.09;;;12.80;64.32
76819;BME280;65772;51.096;17.006;2024-02-23T01:13:16;97897.70;;;12.83;64.06
76819;BME280;65772;51.096;17.006;2024-02-23T01:15:46;97900.21;;;12.87;64.15
76819;BME280;65772;51.096;17.006;2024-02-23T01:18:17;97899.67;;;12.88;64.01
76819;BME280;65772;51.096;17.006;2024-02-23T01:20:48;97900.17;;;12.89;63.88
76819;BME280;65772;51.096;17.006;2024-02-23T01:23:19;97901.34;;;12.91;63.69
76819;BME280;65772;51.096;17.006;2024-02-23T01:25:50;97903.36;;;12.92;63.45
76819;BME280;65772;51.096;17.006;2024-02-23T01:28:20;97902.70;;;12.92;63.51
76819;BME280;65772;51.096;17.006;2024-02-23T01:30:51;97905.14;;;12.90;63.35
76819;BME280;65772;51.096;17.006;2024-02-23T01:33:22;97905.50;;;12.88;63.27
76819;BME280;65772;51.096;17.006;2024-02-23T01:35:53;97908.96;;;12.85;63.32
76819;BME280;65772;51.096;17.006;2024-02-23T01:38:25;97903.67;;;12.85;63.43
76819;BME280;65772;51.096;17.006;2024-02-23T01:41:01;97895.96;;;12.86;63.21
76819;BME280;65772;51.096;17.006;2024-02-23T01:43:32;97884.82;;;12.86;63.62
76819;BME280;65772;51.096;17.006;2024-02-23T01:46:03;97873.70;;;12.85;63.44
76819;BME280;65772;51.096;17.006;2024-02-23T01:48:34;97874.75;;;12.84;63.34
76819;BME280;65772;51.096;17.006;2024-02-23T01:51:05;97881.11;;;12.82;63.51
76819;BME280;65772;51.096;17.006;2024-02-23T01:53:36;97874.77;;;12.82;63.54
76819;BME280;65772;51.096;17.006;2024-02-23T01:56:07;97869.27;;;12.84;63.25
76819;BME280;65772;51.096;17.006;2024-02-23T01:58:41;97862.91;;;12.85;63.18
76819;BME280;65772;51.096;17.006;2024-02-23T02:01:12;97861.36;;;12.86;63.31
76819;BME280;65772;51.096;17.006;2024-02-23T02:03:44;97870.44;;;12.86;63.23
76819;BME280;65772;51.096;17.006;2024-02-23T02:06:15;97871.13;;;12.86;63.43
76819;BME280;65772;51.096;17.006;2024-02-23T02:08:47;97857.95;;;12.86;62.98
76819;BME280;65772;51.096;17.006;2024-02-23T02:11:16;97841.03;;;12.83;63.00
76819;BME280;65772;51.096;17.006;2024-02-23T02:13:47;97864.90;;;12.81;62.82
76819;BME280;65772;51.096;17.006;2024-02-23T02:16:20;97884.27;;;12.80;62.71
76819;BME280;65772;51.096;17.006;2024-02-23T02:18:51;97894.38;;;12.79;62.71
76819;BME280;65772;51.096;17.006;2024-02-23T02:21:21;97903.46;;;12.78;62.85
76819;BME280;65772;51.096;17.006;2024-02-23T02:23:54;97903.64;;;12.78;62.57
76819;BME280;65772;51.096;17.006;2024-02-23T02:26:26;97906.74;;;12.77;62.40
76819;BME280;65772;51.096;17.006;2024-02-23T02:28:56;97902.30;;;12.76;62.59
76819;BME280;65772;51.096;17.006;2024-02-23T02:31:27;97908.80;;;12.77;62.35
76819;BME280;65772;51.096;17.006;2024-02-23T02:33:58;97911.55;;;12.76;62.22
76819;BME280;65772;51.096;17.006;2024-02-23T02:36:28;97918.60;;;12.74;62.19
76819;BME280;65772;51.096;17.006;2024-02-23T02:38:59;97918.41;;;12.74;62.16
76819;BME280;65772;51.096;17.006;2024-02-23T02:41:30;97917.73;;;12.74;62.42
76819;BME280;65772;51.096;17.006;2024-02-23T02:44:01;97918.42;;;12.74;62.24
76819;BME280;65772;51.096;17.006;2024-02-23T02:46:32;97920.83;;;12.73;62.18
76819;BME280;65772;51.096;17.006;2024-02-23T02:49:03;97920.83;;;12.73;62.26
76819;BME280;65772;51.096;17.006;2024-02-23T02:51:33;97917.75;;;12.73;62.26
76819;BME280;65772;51.096;17.006;2024-02-23T02:54:04;97916.91;;;12.73;62.27
76819;BME280;65772;51.096;17.006;2024-02-23T02:56:35;97916.86;;;12.75;62.37
76819;BME280;65772;51.096;17.006;2024-02-23T02:59:05;97919.07;;;12.76;61.99
76819;BME280;65772;51.096;17.006;2024-02-23T03:01:36;97920.95;;;12.76;61.95
76819;BME280;65772;51.096;17.006;2024-02-23T03:04:07;97919.63;;;12.74;61.64
76819;BME280;65772;51.096;17.006;2024-02-23T03:06:38;97928.38;;;12.72;61.62
76819;BME280;65772;51.096;17.006;2024-02-23T03:09:09;97938.30;;;12.72;61.92
76819;BME280;65772;51.096;17.006;2024-02-23T03:11:40;97938.67;;;12.71;61.72
76819;BME280;65772;51.096;17.006;2024-02-23T03:14:11;97930.29;;;12.71;61.49
76819;BME280;65772;51.096;17.006;2024-02-23T03:16:42;97924.34;;;12.70;61.63
76819;BME280;65772;51.096;17.006;2024-02-23T03:19:12;97920.92;;;12.70;61.57
76819;BME280;65772;51.096;17.006;2024-02-23T03:21:43;97926.89;;;12.71;61.50
76819;BME280;65772;51.096;17.006;2024-02-23T03:24:13;97937.63;;;12.72;61.66
76819;BME280;65772;51.096;17.006;2024-02-23T03:26:44;97939.82;;;12.74;61.71
76819;BME280;65772;51.096;17.006;2024-02-23T03:29:15;97943.91;;;12.76;61.50
76819;BME280;65772;51.096;17.006;2024-02-23T03:31:46;97947.33;;;12.76;61.78
76819;BME280;65772;51.096;17.006;2024-02-23T03:34:16;97951.63;;;12.75;61.64
76819;BME280;65772;51.096;17.006;2024-02-23T03:36:47;97979.36;;;12.74;61.59
76819;BME280;65772;51.096;17.006;2024-02-23T03:39:18;98006.41;;;12.74;61.75
76819;BME280;65772;51.096;17.006;2024-02-23T03:41:49;98008.45;;;12.75;61.62
76819;BME280;65772;51.096;17.006;2024-02-23T03:44:19;98011.40;;;12.73;61.81
76819;BME280;65772;51.096;17.006;2024-02-23T03:46:50;98010.97;;;12.70;61.76
76819;BME280;65772;51.096;17.006;2024-02-23T03:49:21;98019.03;;;12.68;61.68
76819;BME280;65772;51.096;17.006;2024-02-23T03:51:52;98026.41;;;12.67;61.80
76819;BME280;65772;51.096;17.006;2024-02-23T03:54:22;98028.27;;;12.68;61.83
76819;BME280;65772;51.096;17.006;2024-02-23T03:56:53;98034.25;;;12.70;62.04
76819;BME280;65772;51.096;17.006;2024-02-23T03:59:24;98040.52;;;12.72;62.26
76819;BME280;65772;51.096;17.006;2024-02-23T04:01:55;98048.88;;;12.73;62.17
76819;BME280;65772;51.096;17.006;2024-02-23T04:04:25;98050.75;;;12.74;62.11
76819;BME280;65772;51.096;17.006;2024-02-23T04:06:56;98057.59;;;12.75;62.22
76819;BME280;65772;51.096;17.006;2024-02-23T04:09:27;98061.69;;;12.76;62.11
76819;BME280;65772;51.096;17.006;2024-02-23T04:11:57;98067.17;;;12.75;62.10
76819;BME280;65772;51.096;17.006;2024-02-23T04:14:28;98066.16;;;12.74;62.08
76819;BME280;65772;51.096;17.006;2024-02-23T04:16:59;98069.73;;;12.76;62.01
76819;BME280;65772;51.096;17.006;2024-02-23T04:19:30;98077.73;;;12.80;62.13
76819;BME280;65772;51.096;17.006;2024-02-23T04:22:01;98074.56;;;12.84;62.00
76819;BME280;65772;51.096;17.006;2024-02-23T04:24:31;98069.91;;;12.85;61.88
76819;BME280;65772;51.096;17.006;2024-02-23T04:27:02;98068.20;;;12.85;61.90
76819;BME280;65772;51.096;17.006;2024-02-23T04:29:33;98067.70;;;12.85;61.63
76819;BME280;65772;51.096;17.006;2024-02-23T04:32:05;98069.60;;;12.83;61.57
76819;BME280;65772;51.096;17.006;2024-02-23T04:34:35;98072.02;;;12.82;61.50
76819;BME280;65772;51.096;17.006;2024-02-23T04:37:06;98072.56;;;12.81;61.47
76819;BME280;65772;51.096;17.006;2024-02-23T04:39:37;98073.95;;;12.80;61.35
76819;BME280;65772;51.096;17.006;2024-02-23T04:42:11;98071.24;;;12.78;61.37
76819;BME280;65772;51.096;17.006;2024-02-23T04:44:42;98075.73;;;12.75;61.16
76819;BME280;65772;51.096;17.006;2024-02-23T04:47:13;98075.41;;;12.73;61.24
76819;BME280;65772;51.096;17.006;2024-02-23T04:49:43;98076.46;;;12.72;61.22
76819;BME280;65772;51.096;17.006;2024-02-23T04:52:14;98083.88;;;12.70;61.05
76819;BME280;65772;51.096;17.006;2024-02-23T04:54:45;98082.52;;;12.70;61.13
76819;BME280;65772;51.096;17.006;2024-02-23T04:57:15;98082.69;;;12.69;61.40
76819;BME280;65772;51.096;17.006;2024-02-23T04:59:46;98085.10;;;12.68;61.12
76819;BME280;65772;51.096;17.006;2024-02-23T05:02:17;98100.19;;;12.66;61.11
76819;BME280;65772;51.096;17.006;2024-02-23T05:04:48;98107.94;;;12.63;61.10
76819;BME280;65772;51.096;17.006;2024-02-23T05:07:19;98117.38;;;12.61;61.08
76819;BME280;65772;51.096;17.006;2024-02-23T05:09:50;98124.79;;;12.59;61.18
76819;BME280;65772;51.096;17.006;2024-02-23T05:12:21;98125.63;;;12.59;61.23
76819;BME280;65772;51.096;17.006;2024-02-23T05:14:51;98127.80;;;12.62;61.22
76819;BME280;65772;51.096;17.006;2024-02-23T05:17:22;98126.12;;;12.61;61.22
76819;BME280;65772;51.096;17.006;2024-02-23T05:19:53;98130.07;;;12.60;61.29
76819;BME280;65772;51.096;17.006;2024-02-23T05:22:24;98132.15;;;12.59;61.31
76819;BME280;65772;51.096;17.006;2024-02-23T05:24:54;98132.66;;;12.59;61.16
76819;BME280;65772;51.096;17.006;2024-02-23T05:27:25;98139.33;;;12.60;61.33
76819;BME280;65772;51.096;17.006;2024-02-23T05:29:56;98147.31;;;12.62;61.34
76819;BME280;65772;51.096;17.006;2024-02-23T05:32:27;98157.20;;;12.65;61.19
76819;BME280;65772;51.096;17.006;2024-02-23T05:34:58;98164.20;;;12.67;61.34
76819;BME280;65772;51.096;17.006;2024-02-23T05:37:29;98172.04;;;12.70;61.36
76819;BME280;65772;51.096;17.006;2024-02-23T05:39:59;98179.17;;;12.73;61.11
76819;BME280;65772;51.096;17.006;2024-02-23T05:42:33;98180.17;;;12.74;61.28
76819;BME280;65772;51.096;17.006;2024-02-23T05:45:09;98187.20;;;12.74;61.26
76819;BME280;65772;51.096;17.006;2024-02-23T05:47:40;98193.01;;;12.75;61.14
76819;BME280;65772;51.096;17.006;2024-02-23T05:50:16;98198.48;;;12.75;61.15
76819;BME280;65772;51.096;17.006;2024-02-23T05:52:47;98199.86;;;12.74;61.07
76819;BME280;65772;51.096;17.006;2024-02-23T05:55:18;98203.64;;;12.73;61.20
76819;BME280;65772;51.096;17.006;2024-02-23T05:57:49;98205.90;;;12.72;60.96
76819;BME280;65772;51.096;17.006;2024-02-23T06:00:20;98210.38;;;12.70;61.10
76819;BME280;65772;51.096;17.006;2024-02-23T06:02:51;98216.05;;;12.69;61.10
76819;BME280;65772;51.096;17.006;2024-02-23T06:05:22;98219.48;;;12.67;61.02
76819;BME280;65772;51.096;17.006;2024-02-23T06:07:56;98226.36;;;12.66;60.99
76819;BME280;65772;51.096;17.006;2024-02-23T06:10:27;98234.05;;;12.67;61.02
76819;BME280;65772;51.096;17.006;2024-02-23T06:12:58;98241.90;;;12.68;61.14
76819;BME280;65772;51.096;17.006;2024-02-23T06:15:32;98245.83;;;12.69;60.90
76819;BME280;65772;51.096;17.006;2024-02-23T06:18:03;98253.69;;;12.70;60.70
76819;BME280;65772;51.096;17.006;2024-02-23T06:20:34;98256.03;;;12.73;60.51
76819;BME280;65772;51.096;17.006;2024-02-23T06:23:05;98258.24;;;12.74;60.47
76819;BME280;65772;51.096;17.006;2024-02-23T06:25:36;98259.77;;;12.75;60.30
76819;BME280;65772;51.096;17.006;2024-02-23T06:28:07;98262.88;;;12.73;60.00
76819;BME280;65772;51.096;17.006;2024-02-23T06:30:38;98268.34;;;12.75;60.24
76819;BME280;65772;51.096;17.006;2024-02-23T06:33:08;98278.59;;;12.77;60.24
76819;BME280;65772;51.096;17.006;2024-02-23T06:35:39;98280.48;;;12.77;59.96
76819;BME280;65772;51.096;17.006;2024-02-23T06:38:10;98280.98;;;12.77;59.70
76819;BME280;65772;51.096;17.006;2024-02-23T06:40:41;98283.21;;;12.76;59.74
76819;BME280;65772;51.096;17.006;2024-02-23T06:43:20;98292.48;;;12.76;59.48
76819;BME280;65772;51.096;17.006;2024-02-23T06:45:52;98294.88;;;12.74;59.40
76819;BME280;65772;51.096;17.006;2024-02-23T06:48:23;98304.64;;;12.74;59.44
76819;BME280;65772;51.096;17.006;2024-02-23T06:50:58;98311.83;;;12.74;58.98
76819;BME280;65772;51.096;17.006;2024-02-23T06:53:30;98316.11;;;12.74;59.06
76819;BME280;65772;51.096;17.006;2024-02-23T06:56:01;98313.55;;;12.73;59.21
76819;BME280;65772;51.096;17.006;2024-02-23T06:58:32;98311.98;;;12.77;60.31
76819;BME280;65772;51.096;17.006;2024-02-23T07:01:03;98309.84;;;12.83;60.21
76819;BME280;65772;51.096;17.006;2024-02-23T07:03:35;98310.65;;;12.87;59.60
76819;BME280;65772;51.096;17.006;2024-02-23T07:06:07;98314.73;;;12.91;59.34
76819;BME280;65772;51.096;17.006;2024-02-23T07:08:39;98321.19;;;12.93;59.20
76819;BME280;65772;51.096;17.006;2024-02-23T07:11:10;98320.42;;;12.99;59.02
76819;BME280;65772;51.096;17.006;2024-02-23T07:13:44;98326.00;;;13.05;58.65
76819;BME280;65772;51.096;17.006;2024-02-23T07:16:14;98334.53;;;13.08;58.17
76819;BME280;65772;51.096;17.006;2024-02-23T07:18:45;98334.19;;;13.08;57.92
76819;BME280;65772;51.096;17.006;2024-02-23T07:21:18;98338.81;;;13.08;57.92
76819;BME280;65772;51.096;17.006;2024-02-23T07:23:49;98343.41;;;13.10;58.01
76819;BME280;65772;51.096;17.006;2024-02-23T07:26:19;98344.75;;;13.13;57.90
76819;BME280;65772;51.096;17.006;2024-02-23T07:28:50;98340.96;;;13.15;57.48
76819;BME280;65772;51.096;17.006;2024-02-23T07:31:21;98347.45;;;13.17;57.54
76819;BME280;65772;51.096;17.006;2024-02-23T07:33:51;98347.25;;;13.20;57.42
76819;BME280;65772;51.096;17.006;2024-02-23T07:36:22;98348.08;;;13.23;57.43
76819;BME280;65772;51.096;17.006;2024-02-23T07:38:53;98347.69;;;13.25;57.04
76819;BME280;65772;51.096;17.006;2024-02-23T07:41:24;98357.27;;;13.27;56.86
76819;BME280;65772;51.096;17.006;2024-02-23T07:43:55;98356.91;;;13.28;56.77
76819;BME280;65772;51.096;17.006;2024-02-23T07:46:26;98357.41;;;13.29;56.50
76819;BME280;65772;51.096;17.006;2024-02-23T07:48:57;98359.98;;;13.29;56.42
76819;BME280;65772;51.096;17.006;2024-02-23T07:51:28;98366.99;;;13.30;56.28
76819;BME280;65772;51.096;17.006;2024-02-23T07:53:59;98373.14;;;13.31;56.20
76819;BME280;65772;51.096;17.006;2024-02-23T07:56:30;98377.24;;;13.32;56.29
76819;BME280;65772;51.096;17.006;2024-02-23T07:59:01;98376.38;;;13.34;56.24
76819;BME280;65772;51.096;17.006;2024-02-23T08:01:32;98379.95;;;13.35;55.79
76819;BME280;65772;51.096;17.006;2024-02-23T08:04:03;98383.05;;;13.34;55.85
76819;BME280;65772;51.096;17.006;2024-02-23T08:06:34;98387.35;;;13.33;55.78
76819;BME280;65772;51.096;17.006;2024-02-23T08:09:05;98395.73;;;13.35;55.99
76819;BME280;65772;51.096;17.006;2024-02-23T08:11:37;98402.70;;;13.36;55.78
76819;BME280;65772;51.096;17.006;2024-02-23T08:14:07;98406.66;;;13.36;55.47
76819;BME280;65772;51.096;17.006;2024-02-23T08:16:38;98418.84;;;13.35;55.60
76819;BME280;65772;51.096;17.006;2024-02-23T08:19:09;98425.71;;;13.35;55.46
76819;BME280;65772;51.096;17.006;2024-02-23T08:21:39;98430.35;;;13.34;55.29
76819;BME280;65772;51.096;17.006;2024-02-23T08:24:10;98429.00;;;13.32;55.02
76819;BME280;65772;51.096;17.006;2024-02-23T08:26:41;98426.46;;;13.29;55.08
76819;BME280;65772;51.096;17.006;2024-02-23T08:29:12;98429.55;;;13.29;55.35
76819;BME280;65772;51.096;17.006;2024-02-23T08:31:42;98429.04;;;13.28;55.23
76819;BME280;65772;51.096;17.006;2024-02-23T08:34:13;98433.84;;;13.28;55.21
76819;BME280;65772;51.096;17.006;2024-02-23T08:36:44;98438.98;;;13.27;55.13
76819;BME280;65772;51.096;17.006;2024-02-23T08:39:15;98451.67;;;13.27;55.37
76819;BME280;65772;51.096;17.006;2024-02-23T08:41:45;98474.65;;;13.25;55.36
76819;BME280;65772;51.096;17.006;2024-02-23T08:44:16;98478.48;;;13.22;53.44
76819;BME280;65772;51.096;17.006;2024-02-23T08:46:47;98480.04;;;13.20;51.41
76819;BME280;65772;51.096;17.006;2024-02-23T08:49:18;98485.20;;;13.18;50.18
76819;BME280;65772;51.096;17.006;2024-02-23T08:51:49;98484.21;;;13.11;48.71
76819;BME280;65772;51.096;17.006;2024-02-23T08:54:19;98495.21;;;13.07;47.63
76819;BME280;65772;51.096;17.006;2024-02-23T08:56:50;98503.33;;;13.01;47.22
76819;BME280;65772;51.096;17.006;2024-02-23T08:59:21;98505.93;;;12.97;47.69
76819;BME280;65772;51.096;17.006;2024-02-23T09:01:51;98511.45;;;12.94;47.05
76819;BME280;65772;51.096;17.006;2024-02-23T09:04:22;98517.48;;;12.92;47.01
76819;BME280;65772;51.096;17.006;2024-02-23T09:06:53;98521.95;;;12.90;46.95
76819;BME280;65772;51.096;17.006;2024-02-23T09:09:24;98528.63;;;12.89;46.49
76819;BME280;65772;51.096;17.006;2024-02-23T09:11:55;98528.64;;;12.88;46.52
76819;BME280;65772;51.096;17.006;2024-02-23T09:14:26;98528.81;;;12.86;46.46
76819;BME280;65772;51.096;17.006;2024-02-23T09:16:57;98534.13;;;12.86;46.60
76819;BME280;65772;51.096;17.006;2024-02-23T09:19:28;98536.35;;;12.86;46.60
76819;BME280;65772;51.096;17.006;2024-02-23T09:21:58;98536.17;;;12.87;46.15
76819;BME280;65772;51.096;17.006;2024-02-23T09:24:29;98543.55;;;12.85;46.21
76819;BME280;65772;51.096;17.006;2024-02-23T09:27:00;98544.75;;;12.87;46.46
76819;BME280;65772;51.096;17.006;2024-02-23T09:29:30;98545.09;;;12.86;46.17
76819;BME280;65772;51.096;17.006;2024-02-23T09:32:02;98549.02;;;12.87;46.31
76819;BME280;65772;51.096;17.006;2024-02-23T09:34:32;98553.48;;;12.88;45.99
76819;BME280;65772;51.096;17.006;2024-02-23T09:37:03;98557.08;;;12.87;46.04
76819;BME280;65772;51.096;17.006;2024-02-23T09:39:34;98561.20;;;12.85;45.94
76819;BME280;65772;51.096;17.006;2024-02-23T09:42:06;98566.51;;;12.84;45.97
76819;BME280;65772;51.096;17.006;2024-02-23T09:44:41;98566.67;;;12.83;46.06
76819;BME280;65772;51.096;17.006;2024-02-23T09:47:12;98565.65;;;12.84;46.01
76819;BME280;65772;51.096;17.006;2024-02-23T09:49:44;98565.98;;;12.84;45.87
76819;BME280;65772;51.096;17.006;2024-02-23T09:52:20;98567.02;;;12.83;45.91
76819;BME280;65772;51.096;17.006;2024-02-23T09:54:50;98574.39;;;12.83;46.14
76819;BME280;65772;51.096;17.006;2024-02-23T09:57:21;98580.04;;;12.83;46.12
76819;BME280;65772;51.096;17.006;2024-02-23T09:59:51;98579.19;;;12.83;45.73
76819;BME280;65772;51.096;17.006;2024-02-23T10:02:22;98586.39;;;12.82;46.02
76819;BME280;65772;51.096;17.006;2024-02-23T10:04:55;98589.48;;;12.82;45.41
76819;BME280;65772;51.096;17.006;2024-02-23T10:07:26;98590.86;;;12.81;45.93
76819;BME280;65772;51.096;17.006;2024-02-23T10:09:57;98596.67;;;12.81;45.70
76819;BME280;65772;51.096;17.006;2024-02-23T10:12:28;98600.59;;;12.82;46.07
76819;BME280;65772;51.096;17.006;2024-02-23T10:14:59;98604.17;;;12.85;46.11
76819;BME280;65772;51.096;17.006;2024-02-23T10:17:33;98607.42;;;12.87;45.77
76819;BME280;65772;51.096;17.006;2024-02-23T10:20:07;98611.17;;;12.89;45.55
76819;BME280;65772;51.096;17.006;2024-02-23T10:22:38;98620.60;;;12.89;45.05
76819;BME280;65772;51.096;17.006;2024-02-23T10:25:09;98620.42;;;12.91;45.34
76819;BME280;65772;51.096;17.006;2024-02-23T10:27:41;98626.04;;;12.93;45.67
76819;BME280;65772;51.096;17.006;2024-02-23T10:30:14;98627.55;;;12.95;45.55
76819;BME280;65772;51.096;17.006;2024-02-23T10:32:46;98633.71;;;12.96;45.34
76819;BME280;65772;51.096;17.006;2024-02-23T10:35:19;98632.17;;;12.96;45.10
76819;BME280;65772;51.096;17.006;2024-02-23T10:37:52;98633.73;;;12.96;45.34
76819;BME280;65772;51.096;17.006;2024-02-23T10:40:23;98638.69;;;12.95;44.64
76819;BME280;65772;51.096;17.006;2024-02-23T10:42:58;98633.21;;;12.94;44.77
76819;BME280;65772;51.096;17.006;2024-02-23T10:45:33;98633.90;;;12.94;44.60
76819;BME280;65772;51.096;17.006;2024-02-23T10:48:07;98632.02;;;12.94;44.97
76819;BME280;65772;51.096;17.006;2024-02-23T10:50:39;98634.91;;;12.96;45.16
76819;BME280;65772;51.096;17.006;2024-02-23T10:53:15;98627.36;;;12.99;45.40
76819;BME280;65772;51.096;17.006;2024-02-23T10:55:47;98627.70;;;13.02;45.03
76819;BME280;65772;51.096;17.006;2024-02-23T10:58:22;98633.13;;;13.04;45.04
76819;BME280;65772;51.096;17.006;2024-02-23T11:00:54;98636.55;;;13.06;44.86
76819;BME280;65772;51.096;17.006;2024-02-23T11:03:30;98636.19;;;13.09;44.75
76819;BME280;65772;51.096;17.006;2024-02-23T11:06:05;98637.55;;;13.10;45.34
76819;BME280;65772;51.096;17.006;2024-02-23T11:08:37;98639.92;;;13.15;45.17
76819;BME280;65772;51.096;17.006;2024-02-23T11:11:11;98643.35;;;13.16;45.16
76819;BME280;65772;51.096;17.006;2024-02-23T11:13:46;98641.98;;;13.15;45.20
76819;BME280;65772;51.096;17.006;2024-02-23T11:16:24;98639.07;;;13.14;44.90
76819;BME280;65772;51.096;17.006;2024-02-23T11:19:05;98636.48;;;13.16;44.85
76819;BME280;65772;51.096;17.006;2024-02-23T11:21:38;98639.23;;;13.18;45.02
76819;BME280;65772;51.096;17.006;2024-02-23T11:24:09;98631.83;;;13.22;44.23
76819;BME280;65772;51.096;17.006;2024-02-23T11:26:45;98626.64;;;13.25;44.27
76819;BME280;65772;51.096;17.006;2024-02-23T11:29:19;98622.67;;;13.28;44.26
76819;BME280;65772;51.096;17.006;2024-02-23T11:31:52;98619.08;;;13.29;44.14
76819;BME280;65772;51.096;17.006;2024-02-23T11:34:26;98611.18;;;13.30;44.02
76819;BME280;65772;51.096;17.006;2024-02-23T11:36:57;98604.32;;;13.31;43.82
76819;BME280;65772;51.096;17.006;2024-02-23T11:39:30;98598.15;;;13.31;43.42
76819;BME280;65772;51.096;17.006;2024-02-23T11:42:02;98594.39;;;13.30;43.77
76819;BME280;65772;51.096;17.006;2024-02-23T11:44:33;98597.30;;;13.32;43.96
76819;BME280;65772;51.096;17.006;2024-02-23T11:47:04;98598.83;;;13.34;44.09
76819;BME280;65772;51.096;17.006;2024-02-23T11:49:35;98604.64;;;13.35;44.38
76819;BME280;65772;51.096;17.006;2024-02-23T11:52:06;98613.52;;;13.36;44.68
76819;BME280;65772;51.096;17.006;2024-02-23T11:54:37;98612.14;;;13.37;44.51
76819;BME280;65772;51.096;17.006;2024-02-23T11:57:08;98613.84;;;13.38;44.48
76819;BME280;65772;51.096;17.006;2024-02-23T11:59:38;98627.20;;;13.39;44.67
76819;BME280;65772;51.096;17.006;2024-02-23T12:02:12;98637.83;;;13.38;44.95
76819;BME280;65772;51.096;17.006;2024-02-23T12:04:43;98645.20;;;13.38;44.87
76819;BME280;65772;51.096;17.006;2024-02-23T12:07:14;98649.84;;;13.38;45.04
76819;BME280;65772;51.096;17.006;2024-02-23T12:09:46;98651.38;;;13.37;45.12
76819;BME280;65772;51.096;17.006;2024-02-23T12:12:17;98651.40;;;13.36;45.08
76819;BME280;65772;51.096;17.006;2024-02-23T12:14:48;98659.49;;;13.34;45.05
76819;BME280;65772;51.096;17.006;2024-02-23T12:17:19;98671.66;;;13.32;45.03
76819;BME280;65772;51.096;17.006;2024-02-23T12:19:50;98678.02;;;13.31;44.79
76819;BME280;65772;51.096;17.006;2024-02-23T12:22:25;98679.89;;;13.31;44.56
76819;BME280;65772;51.096;17.006;2024-02-23T12:24:58;98688.82;;;13.31;44.70
76819;BME280;65772;51.096;17.006;2024-02-23T12:27:29;98695.15;;;13.31;44.99
76819;BME280;65772;51.096;17.006;2024-02-23T12:30:00;98691.73;;;13.29;45.34
76819;BME280;65772;51.096;17.006;2024-02-23T12:32:31;98691.91;;;13.27;45.59
76819;BME280;65772;51.096;17.006;2024-02-23T12:35:02;98687.46;;;13.26;46.11
76819;BME280;65772;51.096;17.006;2024-02-23T12:37:37;98684.40;;;13.25;46.33
76819;BME280;65772;51.096;17.006;2024-02-23T12:40:13;98684.77;;;13.23;46.41
76819;BME280;65772;51.096;17.006;2024-02-23T12:42:43;98680.84;;;13.20;46.15
76819;BME280;65772;51.096;17.006;2024-02-23T12:45:16;98679.64;;;13.21;46.38
76819;BME280;65772;51.096;17.006;2024-02-23T12:47:46;98680.33;;;13.21;46.48
76819;BME280;65772;51.096;17.006;2024-02-23T12:50:17;98688.73;;;13.22;46.55
76819;BME280;65772;51.096;17.006;2024-02-23T12:52:48;98696.09;;;13.23;46.54
76819;BME280;65772;51.096;17.006;2024-02-23T12:55:19;98694.54;;;13.23;46.67
76819;BME280;65772;51.096;17.006;2024-02-23T12:57:49;98698.48;;;13.22;46.31
76819;BME280;65772;51.096;17.006;2024-02-23T13:00:20;98696.80;;;13.18;46.45
76819;BME280;65772;51.096;17.006;2024-02-23T13:02:51;98698.70;;;13.13;46.23
76819;BME280;65772;51.096;17.006;2024-02-23T13:05:21;98704.02;;;13.11;46.34
76819;BME280;65772;51.096;17.006;2024-02-23T13:07:52;98704.38;;;13.08;46.45
76819;BME280;65772;51.096;17.006;2024-02-23T13:10:23;98706.77;;;13.07;47.06